^^

METAR Αεροδρομίων

σε ακτίνα 500 χλμ


 Τι είναι το METAR ??? 

Πρώτο είναι το πλησιέστερο αεροδρόμιο (Θεσ/νίκη LGTS 6χλμ) και
τέλος το πιο απομακρυσμένο (Κων/πολη LTBA 494χλμ).
Επίσης μερικές αναφορές, παρουσιάζουν λιγότερα στοιχεία γιατί
οι αρχικές είναι ελλιπείς ή έχουν λάθος μορφοποίηση.
Πηγαίνετε στις Αναφορές METAR από Μετεωρολογικούς Σταθμούς )  
Αλφαβητική Λίστα Γρήγορης Μετάβασης στα 48 Αεροδρόμια
Αλβανία: Τίρανα  Βουλγαρία: Γκόρνα Οριαχόβιτσα  Μπουργκάς  Σόφια  Φιλιππούπολη  Ελλάδα: Αθήνα  Αλεξανδρούπολη  Ανδραβίδα  Βόλος  Ελευσίνα  Ζάκυνθος  Θεσσαλονίκη  Ιωάννινα  Καβάλα  Καλαμάτα  Κέρκυρα  Κεφαλονιά  Κοζάνη  Κύθηρα
Λέσβος  Λήμνος  Μύκονος  Νάξος  Πάρος  Πάτρα  Πρέβεζα  Σάμος  Σκιάθος  Σκύρος  Σύρος  Χίος  Ιταλία: Γκαλατίνα  Μπρίντιζι  Σάντα Μαρία ντι Λέουκα  Ταράντο  Κόσοβο: Πρίστινα  Κροατία: Ντουμπρόβνικ  Μαυροβούνιο: Ποντγκόριτσα  Τιβάτ
Δ.Β.Μ: Οχρίδα  Σκόπια  Ρουμανία: Κραϊόβα  Σερβία: Κράλιεβο  Νις  Ούζιτσε  Τουρκία: Κωνσταντινούπολη  Σμύρνη Τσορλού 
(ΒΠΑ)Βάση Πολεμικής Αεροπορίας
LGTS - Αεροδρόμιο "Μακεδονία"
Θεσσαλονίκη - Κεντρική Μακεδονία - Ελλάδα
Γ.Πλάτ: 40.5167 - Γ.Μήκ: 22.9667 - Υψόμ: 7μ
Απόσταση από το Vouhead Weather: (Ν) 6χλμ
Ενημερώθηκε: 03/10/2022 15:20
Διάσπαρτα νέφη
Διάσπαρτα νέφη
 Άνεμος από ΔΒΔ
Άνεμος: ΔΒΔ 9 km/h
Θερμοκρασία: 25°C
Σημείο δρόσου: 14°C
Υγρασία: 51%
Βαρόμετρο: 1012 hPa
Σύννεφα: Διάσπαρτα νέφη
Ορατότητα: 10 km
Ανάλυση Νέφωσης: Διάσπαρτα νέφη 610 m
2022/10/03 12:20 LGTS 031220Z 29005KT 9999 FEW020 25/14 Q1012 NOSIG
LGKZ - Αεροδρόμιο "Φίλιππος"
Κοζάνη - Δυτική Μακεδονία - Ελλάδα
Γ.Πλάτ: 40.2833 - Γ.Μήκ: 21.8333 - Υψόμ: 628μ
Απόσταση από το Vouhead Weather: (ΔΝΔ) 102χλμ
Ενημερώθηκε: 03/10/2022 15:20
Εντονα πτωτική
Εντονα πτωτική
 Άνεμος από ΒΒΔ
Άνεμος: ΒΒΔ 9 km/h
Θερμοκρασία: 25°C
Σημείο δρόσου: 4°C
Υγρασία: 26%
Βαρόμετρο: 1013 hPa
2022/10/03 12:20 LGKZ 031220Z AUTO 33005KT 190V070 //// // ////// 25/04 Q1013 RE//
 
LGKV - Αεροδρόμιο "Μέγας Αλέξανδρος"
Καβάλα(Χρυσούπολη) - Α. Μακεδονία & Θράκη - Ελλάδα
Γ.Πλάτ: 40.9167 - Γ.Μήκ: 24.6167 - Υψόμ: 5μ
Απόσταση από το Vouhead Weather: (ΑΒΑ) 144χλμ
Ενημερώθηκε: 03/10/2022 15:20
Διάσπαρτα νέφη
Διάσπαρτα νέφη
 Άνεμος από ΝΝΔ
Άνεμος: ΝΝΔ 24 km/h
Θερμοκρασία: 24°C
Σημείο δρόσου: 14°C
Υγρασία: 54%
Βαρόμετρο: 1011 hPa
Σύννεφα: Διάσπαρτα νέφη
Ορατότητα: 10 km
Ανάλυση Νέφωσης: Διάσπαρτα νέφη 610 m
2022/10/03 12:20 LGKV 031220Z 21013KT 9999 FEW020 24/14 Q1011
LGBL - Αεροδρόμιο στη Νέα Αγχίαλο
Βόλος(Αλμυρός) - Θεσσαλία - Ελλάδα
Γ.Πλάτ: 39.2167 - Γ.Μήκ: 22.8000 - Υψόμ: 26μ
Απόσταση από το Vouhead Weather: (Ν) 151χλμ
Ενημερώθηκε: 03/10/2022 15:20
Διάσπαρτα νέφη
Διάσπαρτα νέφη
 Άνεμος από Α
Άνεμος: Α 19 km/h
Θερμοκρασία: 26°C
Σημείο δρόσου: 15°C
Υγρασία: 51%
Βαρόμετρο: 1010 hPa
Σύννεφα: Διάσπαρτα νέφη
Ορατότητα: 10 km
Ανάλυση Νέφωσης: Διάσπαρτα νέφη 1219 m
2022/10/03 12:20 LGBL 031220Z 08010KT 9999 FEW040 26/15 Q1010
 
LGSK - Αεροδρόμ. "Αλέξανδρος Παπαδιαμάντης"
Σκιάθος - Θεσσαλία(Σποράδες) - Ελλάδα
Γ.Πλάτ: 39.1833 - Γ.Μήκ: 23.5000 - Υψόμ: 15μ
Απόσταση από το Vouhead Weather: (ΝΝΑ) 160χλμ
Ενημερώθηκε: 03/10/2022 14:50
Αίθριος
Αίθριος
 Άνεμος από ΑΒΑ
Άνεμος: ΑΒΑ 9 km/h
Θερμοκρασία: 25°C
Σημείο δρόσου: 14°C
Υγρασία: 51%
Βαρόμετρο: 1011 hPa
Περίληψη: Αίθριος
Ορατότητα: πάνω από 10 km
2022/10/03 11:50 LGSK 031150Z 06005KT CAVOK 25/14 Q1011
LWSK - Αεροδρόμιο "Σκόπγιε Ιντερνάσιοναλ Έιρπορτ"
Σκόπια(Πέτροβακ) - Περιφέρεια Σκοπίων - Δ.Β.Μ
Γ.Πλάτ: 41.9667 - Γ.Μήκ: 21.6333 - Υψόμ: 239μ
Απόσταση από το Vouhead Weather: (ΒΔ) 192χλμ
Ενημερώθηκε: 03/10/2022 15:30
Νεφοσκεπής
Νεφοσκεπής
 Άνεμος από Β
Άνεμος: Β 13 km/h
Θερμοκρασία: 17°C
Σημείο δρόσου: 10°C
Υγρασία: 64%
Βαρόμετρο: 1018 hPa
Σύννεφα: Νεφοσκεπής
Ορατότητα: 10 km
Ανάλυση Νέφωσης: Κυρίως νεφελώδης 1372 m
Νεφοσκεπής 2438 m
2022/10/03 12:30 LWSK 031230Z 35007KT 9999 BKN045 OVC080 17/10 Q1018 NOSIG
 
LWOH - Αεροδρόμιο "Σεντ Πολ Δε Απόστλ"
Οχρίδα - Νοτιοδυτική Περιφέρεια - Δ.Β.Μ
Γ.Πλάτ: 41.9667 - Γ.Μήκ: 21.6333 - Υψόμ: 239μ
Απόσταση από το Vouhead Weather: (ΔΒΔ) 193χλμ
Ενημερώθηκε: 03/10/2022 15:30
Μερικώς νεφελώδης
Μερικώς νεφελώδης
 Άνεμος από ΒΒΔ
Άνεμος: ΒΒΔ 20 km/h
Θερμοκρασία: 23°C
Σημείο δρόσου: 7°C
Υγρασία: 36%
Βαρόμετρο: 1014 hPa
Σύννεφα: Μερικώς νεφελώδης
Ορατότητα: 10 km
Ανάλυση Νέφωσης: Διάσπαρτα νέφη 1219 m
Μερικώς νεφελώδης 2438 m
2022/10/03 12:30 LWOH 031230Z 33011KT 9999 FEW040 SCT080 23/07 Q1014
LGLM - Αεροδρόμιο "Ήφαιστος"
Λήμνος - Βόρειο Αιγαίο - Ελλάδα
Γ.Πλάτ: 39.9167 - Γ.Μήκ: 25.2333 - Υψόμ: 5μ
Απόσταση από το Vouhead Weather: (ΑΝΑ) 205χλμ
Ενημερώθηκε: 03/10/2022 15:20
Διάσπαρτα νέφη
Διάσπαρτα νέφη
 Άνεμος από ΝΝΑ
Άνεμος: ΝΝΑ 6 km/h
Θερμοκρασία: 24°C
Σημείο δρόσου: 10°C
Υγρασία: 41%
Βαρόμετρο: 1011 hPa
Σύννεφα: Διάσπαρτα νέφη
Ορατότητα: 10 km
Ανάλυση Νέφωσης: Διάσπαρτα νέφη 610 m
2022/10/03 12:20 LGLM 031220Z 16003KT 9999 FEW020 24/10 Q1011
 
LGIO - Αεροδρόμιο "Βασιλεύς Πύρρος"
Ιωάννινα - Ήπειρος - Ελλάδα
Γ.Πλάτ: 39.7000 - Γ.Μήκ: 20.8167 - Υψόμ: 476μ
Απόσταση από το Vouhead Weather: (ΔΝΔ) 207χλμ
Ενημερώθηκε: 03/10/2022 15:20
Εντονα πτωτική
Εντονα πτωτική
 Άνεμος από ΔΒΔ
Άνεμος: ΔΒΔ 13 km/h
Θερμοκρασία: 25°C
Σημείο δρόσου: 8°C
Υγρασία: 34%
Βαρόμετρο: 1013 hPa
2022/10/03 12:20 LGIO 031220Z AUTO 30007KT 240V320 //// // ////// 25/08 Q1013 RE//
LGSY - Αεροδρόμιο στη Σκύρο
Σκύρος - Θεσσαλία(Σποράδες) - Ελλάδα
Γ.Πλάτ: 38.9667 - Γ.Μήκ: 24.4833 - Υψόμ: 15μ
Απόσταση από το Vouhead Weather: (ΝΑ) 220χλμ
Ενημερώθηκε: 03/10/2022 14:50
Αίθριος
Αίθριος
 Άνεμος από Α
Άνεμος: Α 20 km/h
Θερμοκρασία: 24°C
Σημείο δρόσου: 10°C
Υγρασία: 41%
Βαρόμετρο: 1011 hPa
Περίληψη: Αίθριος
Ορατότητα: πάνω από 10 km
2022/10/03 11:50 LGSY 031150Z 08011KT CAVOK 24/10 Q1011 BLU
 
LBPD - Αεροδρόμιο στη Φιλιππούπολη
Φιλιππούπολη(Κρούμοβο) - Πλόβντιβ - Βουλγαρία
Γ.Πλάτ: 42.1333 - Γ.Μήκ: 24.8000 - Υψόμ: 185μ
Απόσταση από το Vouhead Weather: (ΒΑ) 231χλμ
Ενημερώθηκε: 03/10/2022 15:30
Κυρίως νεφελώδης
Κυρίως νεφελώδης
 Άνεμος από Δ
Άνεμος: Δ 37 km/h
Θερμοκρασία: 20°C
Σημείο δρόσου: 10°C
Υγρασία: 53%
Βαρόμετρο: 1014 hPa
Σύννεφα: Κυρίως νεφελώδης
Ορατότητα: 10 km
Ανάλυση Νέφωσης: Κυρίως νεφελώδης 2042 m
Κυρίως νεφελώδης 2957 m
2022/10/03 12:30 LBPD 031230Z AUTO 27020KT 9999 BKN067/// BKN097/// 20/10 Q1014 TEMPO 5000 RA
LBSF - Αεροδρόμιο στη Σόφια
Σόφια(Βράτσντεμπνα) - Μητρ. περ. Σόφιας - Βουλγαρία
Γ.Πλάτ: 42.6500 - Γ.Μήκ: 23.3833 - Υψόμ: 595μ
Απόσταση από το Vouhead Weather: (Β) 234χλμ
Ενημερώθηκε: 03/10/2022 15:30
Μερικώς νεφελώδης
Μερικώς νεφελώδης
 Άνεμος από Δ
Άνεμος: Δ 35 km/h
Θερμοκρασία: 16°C
Σημείο δρόσου: 8°C
Υγρασία: 59%
Βαρόμετρο: 1016 hPa
Σύννεφα: Μερικώς νεφελώδης
Ορατότητα: 10 km
Ανάλυση Νέφωσης: Διάσπαρτα νέφη 1006 m
Μερικώς νεφελώδης 1798 m
2022/10/03 12:30 LBSF 031230Z 28019KT 9999 FEW033 SCT059 16/08 Q1016 NOSIG
 
LGAL - Αεροδρόμιο "Δημόκριτος"
Αλεξανδρούπολη - Α. Μακεδονία & Θράκη - Ελλάδα
Γ.Πλάτ: 40.8500 - Γ.Μήκ: 25.9167 - Υψόμ: 3μ
Απόσταση από το Vouhead Weather: (Α) 250χλμ
Ενημερώθηκε: 03/10/2022 15:20
Διάσπαρτα νέφη
Διάσπαρτα νέφη
 Άνεμος από ΝΔ
Άνεμος: ΝΔ 19 km/h
Θερμοκρασία: 24°C
Σημείο δρόσου: 11°C
Υγρασία: 44%
Βαρόμετρο: 1011 hPa
Σύννεφα: Διάσπαρτα νέφη
Ορατότητα: 10 km
Ανάλυση Νέφωσης: Διάσπαρτα νέφη 914 m
2022/10/03 12:20 LGAL 031220Z 23010KT 9999 FEW030 24/11 Q1011
BKPR - Αεροδρόμιο "Αντεμ Γιασάρι"
Πρίστινα - Πρίστινα - Κόσοβο
(Ελληνικό Υπουργείο Εξωτερικών, σχετικά με το Κόσοβο)
Γ.Πλάτ: 42.5833 - Γ.Μήκ: 21.0333 - Υψόμ: 576μ
Απόσταση από το Vouhead Weather: (ΒΔ) 276χλμ
Ενημερώθηκε: 03/10/2022 15:30
Διάσπαρτα νέφη
Διάσπαρτα νέφη
 Άνεμος από ΒΑ
Άνεμος: ΒΑ 11 km/h
Θερμοκρασία: 16°C
Σημείο δρόσου: 8°C
Υγρασία: 59%
Βαρόμετρο: 1018 hPa
Σύννεφα: Διάσπαρτα νέφη
Ορατότητα: 10 km
Ανάλυση Νέφωσης: Διάσπαρτα νέφη 2012 m
2022/10/03 12:30 BKPR 031230Z 04006KT 9999 FEW066 16/08 Q1018 NOSIG
 
LGKR - Αεροδρόμιο "Ιωάννης Καποδίστριας"
Κέρκυρα - Ιόνιοι Νήσοι - Ελλάδα
Γ.Πλάτ: 39.6000 - Γ.Μήκ: 19.9167 - Υψόμ: 2μ
Απόσταση από το Vouhead Weather: (ΔΝΔ) 281χλμ
Ενημερώθηκε: 03/10/2022 15:20
Διάσπαρτα νέφη
Διάσπαρτα νέφη
 Άνεμος από ΝΑ
Άνεμος: ΝΑ 13 km/h
Θερμοκρασία: 26°C
Σημείο δρόσου: 14°C
Υγρασία: 48%
Βαρόμετρο: 1011 hPa
Σύννεφα: Διάσπαρτα νέφη
Ορατότητα: 10 km
Ανάλυση Νέφωσης: Διάσπαρτα νέφη 762 m
2022/10/03 12:20 LGKR 031220Z 13007KT 9999 FEW025 26/14 Q1011 NOSIG
LATI - Αεροδρόμιο "Μάδερ Τερέζα"
Τίρανα(Ρίνα) - Τίρανα - Αλβανία
Γ.Πλάτ: 41.3167 - Γ.Μήκ: 19.7667 - Υψόμ: 90μ
Απόσταση από το Vouhead Weather: (ΔΒΔ) 282χλμ
Ενημερώθηκε: 03/10/2022 15:20
Αίθριος
Αίθριος
 Άνεμος από ΒΔ
Άνεμος: ΒΔ 20 km/h
Θερμοκρασία: 23°C
Σημείο δρόσου: 14°C
Υγρασία: 57%
Βαρόμετρο: 1014 hPa
Περίληψη: Αίθριος
Ορατότητα: πάνω από 10 km
2022/10/03 12:20 LATI 031220Z 32011KT 290V350 CAVOK 23/14 Q1014 NOSIG
 
LGEL - Αεροδρόμιο στην Ελευσίνα(ΒΠΑ)
Ελευσίνα - Αττική - Ελλάδα
Γ.Πλάτ: 38.0667 - Γ.Μήκ: 23.5500 - Υψόμ: 31μ
Απόσταση από το Vouhead Weather: (Ν) 282χλμ
Ενημερώθηκε: 03/10/2022 15:20
Αίθριος
Αίθριος
 Άνεμος από Ν
Άνεμος: Ν 19 km/h
Θερμοκρασία: 27°C
Σημείο δρόσου: 10°C
Υγρασία: 34%
Βαρόμετρο: 1010 hPa
Περίληψη: Αίθριος
Ορατότητα: πάνω από 10 km
2022/10/03 12:20 LGEL 031220Z 18010KT CAVOK 27/10 Q1010
LGPZ - Αεροδρόμιο στη Πρέβεζα
Πρέβεζα(Ακτιον) - Ήπειρος - Ελλάδα
Γ.Πλάτ: 38.6167 - Γ.Μήκ: 20.7667 - Υψόμ: 4μ
Απόσταση από το Vouhead Weather: (ΝΔ) 288χλμ
Ενημερώθηκε: 03/10/2022 15:20
Διάσπαρτα νέφη
Διάσπαρτα νέφη
 Άνεμος από Δ
Άνεμος: Δ 22 km/h
Θερμοκρασία: 25°C
Σημείο δρόσου: 17°C
Υγρασία: 61%
Βαρόμετρο: 1012 hPa
Σύννεφα: Διάσπαρτα νέφη
Ορατότητα: 10 km
Ανάλυση Νέφωσης: Διάσπαρτα νέφη 914 m
2022/10/03 12:20 LGPZ 031220Z 26012KT 9999 FEW030 25/17 Q1012
 
LGRX - Αεροδρόμιο στη Πάτρα(ΒΠΑ)
Πάτρα(Αραξος) - Δυτική Ελλάδα - Ελλάδα
Γ.Πλάτ: 38.1667 - Γ.Μήκ: 21.4167 - Υψόμ: 15μ
Απόσταση από το Vouhead Weather: (ΝΝΔ) 299χλμ
Ενημερώθηκε: 03/10/2022 15:20
Διάσπαρτα νέφη
Διάσπαρτα νέφη
 Άνεμος από Δ
Άνεμος: Δ 9 km/h
Θερμοκρασία: 26°C
Σημείο δρόσου: 16°C
Υγρασία: 54%
Βαρόμετρο: 1012 hPa
Σύννεφα: Διάσπαρτα νέφη
Ορατότητα: 10 km
Ανάλυση Νέφωσης: Διάσπαρτα νέφη 762 m
2022/10/03 12:20 LGRX 031220Z 27005KT 9999 FEW025 26/16 Q1012
LGAV - Αεροδρόμιο "Ελευθέριος Βεμιζέλος"
Αθήνα(Σπάτα) - Αττική - Ελλάδα
Γ.Πλάτ: 37.9333 - Γ.Μήκ: 23.9500 - Υψόμ: 94μ
Απόσταση από το Vouhead Weather: (ΝΝΑ) 305χλμ
Ενημερώθηκε: 03/10/2022 15:20
Αίθριος
Αίθριος
 Άνεμος από ΑΒΑ
Άνεμος: ΑΒΑ 17 km/h
Θερμοκρασία: 27°C
Σημείο δρόσου: 8°C
Υγρασία: 30%
Βαρόμετρο: 1011 hPa
Περίληψη: Αίθριος
Ορατότητα: πάνω από 10 km
2022/10/03 12:20 LGAV 031220Z 07009KT 030V120 CAVOK 27/08 Q1011 NOSIG
 
LYNI - Αεροδρόμιο "Κονσταντίν Δε Γκρέιτ"
Νις - Νότια και Ανατολική Σερβία - Σερβία
Γ.Πλάτ: 43.3167 - Γ.Μήκ: 21.8833 - Υψόμ: 202μ
Απόσταση από το Vouhead Weather: (ΒΒΔ) 319χλμ
Ενημερώθηκε: 03/10/2022 15:30
Κυρίως νεφελώδης
Κυρίως νεφελώδης
 Άνεμος από ΒΔ
Άνεμος: ΒΔ 19 km/h
Θερμοκρασία: 18°C
Σημείο δρόσου: 7°C
Υγρασία: 49%
Βαρόμετρο: 1018 hPa
Σύννεφα: Κυρίως νεφελώδης
Ορατότητα: 10 km
Ανάλυση Νέφωσης: Διάσπαρτα νέφη 701 m
Κυρίως νεφελώδης 1006 m
2022/10/03 12:30 LYNI 031230Z 31010KT 270V350 9999 FEW023TCU BKN033 18/07 Q1018 TEMPO 32020KT SHRA
LGAD - Αεροδρόμιο στην Ανδραβίδα(ΒΠΑ)
Ανδραβίδα - Δυτική Ελλάδα - Ελλάδα
Γ.Πλάτ: 37.9167 - Γ.Μήκ: 21.2667 - Υψόμ: 12μ
Απόσταση από το Vouhead Weather: (ΝΝΔ) 329χλμ
Ενημερώθηκε: 03/10/2022 15:20
Διάσπαρτα νέφη
Διάσπαρτα νέφη
 Άνεμος από ΒΔ
Άνεμος: ΒΔ 15 km/h
Θερμοκρασία: 26°C
Σημείο δρόσου: 18°C
Υγρασία: 61%
Βαρόμετρο: 1012 hPa
Σύννεφα: Διάσπαρτα νέφη
Ορατότητα: 10 km
Ανάλυση Νέφωσης: Διάσπαρτα νέφη 549 m
2022/10/03 12:20 LGAD 031220Z 32008KT 9999 FEW018 26/18 Q1012
 
LGKF - Αεροδρόμιο στην Κεφαλονιά
Κεφαλονιά - Ιόνιοι Νήσοι - Ελλάδα
Γ.Πλάτ: 38.1167 - Γ.Μήκ: 20.5000 - Υψόμ: 18μ
Απόσταση από το Vouhead Weather: (ΝΔ) 346χλμ
Ενημερώθηκε: 03/10/2022 14:50
Μερικώς νεφελώδης
Μερικώς νεφελώδης
 Άνεμος από ΒΔ
Άνεμος: ΒΔ 24 km/h
Θερμοκρασία: 25°C
Σημείο δρόσου: 17°C
Υγρασία: 61%
Βαρόμετρο: 1013 hPa
Σύννεφα: Μερικώς νεφελώδης
Ορατότητα: 10 km
Ανάλυση Νέφωσης: Μερικώς νεφελώδης 549 m
2022/10/03 11:50 LGKF 031150Z 32013KT 9999 SCT018 25/17 Q1013
LGMT - Αεροδρόμιο "Οδυσσέας Ελύτης"
Λέσβος - Βόρειο Αιγαίο - Ελλάδα
Γ.Πλάτ: 39.0500 - Γ.Μήκ: 26.6000 - Υψόμ: 17μ
Απόσταση από το Vouhead Weather: (ΑΝΑ) 353χλμ
Ενημερώθηκε: 03/10/2022 15:20
Αίθριος
Αίθριος
 Άνεμος από ΒΔ
Άνεμος: ΒΔ 19 km/h
Θερμοκρασία: 26°C
Σημείο δρόσου: 12°C
Υγρασία: 42%
Βαρόμετρο: 1012 hPa
Περίληψη: Αίθριος
Ορατότητα: πάνω από 10 km
2022/10/03 12:20 LGMT 031220Z 32010KT CAVOK 26/12 Q1012
 
LGZA - Αεροδρόμιο "Διονύσιος Σολωμός"
Ζάκυνθος - Ιόνιοι Νήσοι - Ελλάδα
Γ.Πλάτ: 37.7500 - Γ.Μήκ: 20.8667 - Υψόμ: 3μ
Απόσταση από το Vouhead Weather: (ΝΝΔ) 362χλμ
Ενημερώθηκε: 03/10/2022 14:50
Μερικώς νεφελώδης
Μερικώς νεφελώδης
 Άνεμος από Ν
Άνεμος: Ν 13 km/h
Θερμοκρασία: 26°C
Σημείο δρόσου: 17°C
Υγρασία: 58%
Βαρόμετρο: 1012 hPa
Σύννεφα: Μερικώς νεφελώδης
Ορατότητα: 10 km
Ανάλυση Νέφωσης: Μερικώς νεφελώδης 610 m
2022/10/03 11:50 LGZA 031150Z 17007KT 9999 SCT020 26/17 Q1012
LBGO - Αεροδρόμιο στη Γκόρνα Οριαχόβιτσα
Γκόρνα Οριαχόβιτσα - Βέλικο Τάρνοβο - Βουλγαρία
Γ.Πλάτ: 43.1500 - Γ.Μήκ: 25.7167 - Υψόμ: 86μ
Απόσταση από το Vouhead Weather: (ΒΑ) 366χλμ
Ενημερώθηκε: 03/10/2022 15:30
Κυρίως νεφελώδης
Κυρίως νεφελώδης
 Άνεμος από Δ
Άνεμος: Δ 35 km/h, Ριπή: 56 km/h
Θερμοκρασία: 18°C
Σημείο δρόσου: 10°C
Υγρασία: 60%
Βαρόμετρο: 1013 hPa
Σύννεφα: Κυρίως νεφελώδης
Ορατότητα: 10 km
Ανάλυση Νέφωσης: Διάσπαρτα νέφη 1250 m
Κυρίως νεφελώδης 2195 m
2022/10/03 12:30 LBGO 031230Z AUTO 27019G30KT 9999 FEW041/// BKN072/// 18/10 Q1013 NOSIG
 
LGHI - Αεροδρόμιο "Όμηρος"
Χίος - Ιόνιοι Νήσοι - Ελλάδα
Γ.Πλάτ: 38.3167 - Γ.Μήκ: 26.1167 - Υψόμ: 4μ
Απόσταση από το Vouhead Weather: (ΝΑ) 368χλμ
Ενημερώθηκε: 03/10/2022 14:50
Αίθριος
Αίθριος
 Άνεμος από Β
Άνεμος: Β 22 km/h
Θερμοκρασία: 24°C
Σημείο δρόσου: 11°C
Υγρασία: 44%
Βαρόμετρο: 1010 hPa
Περίληψη: Αίθριος
Ορατότητα: πάνω από 10 km
2022/10/03 11:50 LGHI 031150Z 01012KT CAVOK 24/11 Q1010
LYPG - Αεροδρόμιο στη Ποντγκόριτσα
Ποντγκόριτσα - Γκολούμποβτσι - Μαυροβούνιο
Γ.Πλάτ: 42.3667 - Γ.Μήκ: 19.2500 - Υψόμ: 43μ
Απόσταση από το Vouhead Weather: (ΒΔ) 369χλμ
Ενημερώθηκε: 03/10/2022 15:30
Διάσπαρτα νέφη
Διάσπαρτα νέφη
 Άνεμος από ΒΒΑ
Άνεμος: ΒΒΑ 31 km/h
Θερμοκρασία: 24°C
Σημείο δρόσου: 5°C
Υγρασία: 29%
Βαρόμετρο: 1015 hPa
Σύννεφα: Διάσπαρτα νέφη
Ορατότητα: 10 km
Ανάλυση Νέφωσης: Διάσπαρτα νέφη 1524 m
2022/10/03 12:30 LYPG 031230Z 03017KT 350V060 9999 FEW050 24/05 Q1015 NOSIG
 
LGSO - Αεροδρόμιο "Δημήτριος Βικέλας"
Σύρος - Νότιο Αιγαίο - Ελλάδα
Γ.Πλάτ: 37.4167 - Γ.Μήκ: 24.9500 - Υψόμ: 72μ
Απόσταση από το Vouhead Weather: (ΝΝΑ) 390χλμ
Ενημερώθηκε: 03/10/2022 14:50
Αίθριος
Αίθριος
 Άνεμος από Β
Άνεμος: Β 15 km/h
Θερμοκρασία: 26°C
Σημείο δρόσου: 10°C
Υγρασία: 37%
Βαρόμετρο: 1012 hPa
Περίληψη: Αίθριος
Ορατότητα: πάνω από 10 km
2022/10/03 11:50 LGSO 031150Z 36008KT CAVOK 26/10 Q1012
LGKL - Αεροδρόμιο στη Καλαμάτα(ΒΠΑ)
Καλαμάτα - Πελοπόννησος - Ελλάδα
Γ.Πλάτ: 37.0667 - Γ.Μήκ: 22.0167 - Υψόμ: 8μ
Απόσταση από το Vouhead Weather: (ΝΝΔ) 398χλμ
Ενημερώθηκε: 03/10/2022 15:20
Διάσπαρτα νέφη
Διάσπαρτα νέφη
 Άνεμος από Ν
Άνεμος: Ν 15 km/h
Θερμοκρασία: 27°C
Δείκτης Δυσφορίας: 28°C
Σημείο δρόσου: 18°C
Υγρασία: 58%
Βαρόμετρο: 1011 hPa
Σύννεφα: Διάσπαρτα νέφη
Ορατότητα: 10 km
Ανάλυση Νέφωσης: Διάσπαρτα νέφη 914 m
2022/10/03 12:20 LGKL 031220Z 18008KT 9999 FEW030 27/18 Q1011
 
LIBY - Αεροδρόμιο στη Σάντα Μαρία ντι Λέουκα
Σάντα Μαρία ντι Λέουκα - Απουλία(Λέτσε) - Ιταλία
Γ.Πλάτ: 39.8167 - Γ.Μήκ: 18.3500 - Υψόμ: 112μ
Απόσταση από το Vouhead Weather: (Δ) 402χλμ
Ενημερώθηκε: 03/10/2022 14:55
Μερικώς νεφελώδης
Μερικώς νεφελώδης
 Άνεμος από Β
Άνεμος: Β 24 km/h
Θερμοκρασία: 24°C
Σημείο δρόσου: 17°C
Υγρασία: 65%
Βαρόμετρο: 1014 hPa
Σύννεφα: Μερικώς νεφελώδης
Ορατότητα: 10 km
Ανάλυση Νέφωσης: Μερικώς νεφελώδης 488 m
2022/10/03 11:55 LIBY 031155Z 01013KT 9999 SCT016 24/17 Q1014 RMK SCT QUK 3 QUL 1 N VIS MAR 30 KM VIS MAX 30 KM VIS MIN 9999
LGMK - Αεροδρόμιο στη Μύκονο
Μύκονος - Νότιο Αιγαίο - Ελλάδα
Γ.Πλάτ: 37.4333 - Γ.Μήκ: 25.3500 - Υψόμ: 123μ
Απόσταση από το Vouhead Weather: (ΝΝΑ) 404χλμ
Ενημερώθηκε: 03/10/2022 15:20
Αίθριος
Αίθριος
 Άνεμος από Μεταβλητός
Άνεμος: Μεταβλητός 0 km/h
Θερμοκρασία: 25°C
Σημείο δρόσου: 14°C
Υγρασία: 51%
Βαρόμετρο: 1011 hPa
Περίληψη: Αίθριος
Ορατότητα: πάνω από 10 km
2022/10/03 12:20 LGMK 031220Z /////KT CAVOK 25/14 Q1011
 
LYTV - Αεροδρόμιο στο Τιβάτ
Τιβάτ - Τιβάτ - Μαυροβούνιο
Γ.Πλάτ: 42.3833 - Γ.Μήκ: 18.7167 - Υψόμ: 5μ
Απόσταση από το Vouhead Weather: (ΔΒΔ) 408χλμ
Ενημερώθηκε: 03/10/2022 15:30
Διάσπαρτα νέφη
Διάσπαρτα νέφη
 Άνεμος από Μεταβλητός
Άνεμος: Μεταβλητός 15 km/h
Θερμοκρασία: 25°C
Σημείο δρόσου: 8°C
Υγρασία: 34%
Βαρόμετρο: 1014 hPa
Σύννεφα: Διάσπαρτα νέφη
Ορατότητα: 10 km
Ανάλυση Νέφωσης: Διάσπαρτα νέφη 1615 m
2022/10/03 12:30 LYTV 031230Z VRB08KT 9999 FEW053 25/08 Q1014 NOSIG
LIBN - Αεροδρόμιο στη Γκαλατίνα(ΒΠΑ)
Γκαλατίνα - Απουλία(Λέτσε) - Ιταλία
Γ.Πλάτ: 40.2167 - Γ.Μήκ: 18.1333 - Υψόμ: 61μ
Απόσταση από το Vouhead Weather: (Δ) 412χλμ
Ενημερώθηκε: 03/10/2022 14:55
Μερικώς νεφελώδης
Μερικώς νεφελώδης
 Άνεμος από Β
Άνεμος: Β 26 km/h
Θερμοκρασία: 23°C
Σημείο δρόσου: 16°C
Υγρασία: 65%
Βαρόμετρο: 1015 hPa
Σύννεφα: Μερικώς νεφελώδης
Ορατότητα: 10 km
Ανάλυση Νέφωσης: Μερικώς νεφελώδης 1067 m
2022/10/03 11:55 LIBN 031155Z 36014KT 9999 SCT035 23/16 Q1015
 
LYKV - Αεροδρόμιο στο Κράλιεβο & Λάντεβτσι
Κράλιεβο(Όμπρβα) - Σουμαντίγια και Δ. Σερβία - Σερβία
Γ.Πλάτ: 43.8167 - Γ.Μήκ: 20.5833 - Υψόμ: 209μ
Απόσταση από το Vouhead Weather: (ΒΒΔ) 412χλμ
Ενημερώθηκε: 03/10/2022 15:30
Κυρίως νεφελώδης
Κυρίως νεφελώδης
 Άνεμος από Μεταβλητός
Άνεμος: Μεταβλητός 19 km/h
Θερμοκρασία: 17°C
Σημείο δρόσου: 9°C
Υγρασία: 59%
Βαρόμετρο: 1019 hPa
Σύννεφα: Κυρίως νεφελώδης
Ορατότητα: 10 km
Ανάλυση Νέφωσης: Κυρίως νεφελώδης 1006 m
2022/10/03 12:30 LYKV 031230Z VRB10KT 9999 BKN033 17/09 Q1019 NOSIG
LTBU - Αεροδρόμιο στο Τσορλού(ΒΠΑ)
Τσορλού - Μαρμαράς(Τεκιρντάγ-Ραιδεστός) - Τουρκία
Γ.Πλάτ: 41.1167 - Γ.Μήκ: 27.9167 - Υψόμ: 173μ
Απόσταση από το Vouhead Weather: (Α) 420χλμ
Ενημερώθηκε: 03/10/2022 15:20
Μερικώς νεφελώδης
Μερικώς νεφελώδης
 Άνεμος από Μεταβλητός
Άνεμος: Μεταβλητός 9 km/h
Θερμοκρασία: 23°C
Σημείο δρόσου: 7°C
Υγρασία: 36%
Βαρόμετρο: 1012 hPa
Σύννεφα: Μερικώς νεφελώδης
Ορατότητα: 10 km
Ανάλυση Νέφωσης: Διάσπαρτα νέφη 1219 m
Μερικώς νεφελώδης 3048 m
2022/10/03 12:20 LTBU 031220Z VRB05KT 9999 FEW040 SCT100 23/07 Q1012
 
LRCV - Αεροδρόμιο στη Κραϊόβα
Κραϊόβα - Δολζ - Ρουμανία
Γ.Πλάτ: 44.3167 - Γ.Μήκ: 23.8833 - Υψόμ: 191μ
Απόσταση από το Vouhead Weather: (Β) 424χλμ
Ενημερώθηκε: 03/10/2022 15:30
Αίθριος
Αίθριος
 Άνεμος από ΔΒΔ
Άνεμος: ΔΒΔ 39 km/h
Θερμοκρασία: 19°C
Σημείο δρόσου: 4°C
Υγρασία: 37%
Βαρόμετρο: 1013 hPa
Περίληψη: Αίθριος
Ορατότητα: πάνω από 10 km
2022/10/03 12:30 LRCV 031230Z 29021KT CAVOK 19/04 Q1013
LIBR - Αεροδρόμιο στο Μπρίντιζι
(Ανεπίσημο όνομα αεροδρομίου: Ντελ Σαλέντο)
Μπρίντιζι(Πάπολα-Καζάλε) - Απουλία(Μπρίντιζι) - Ιταλία
Γ.Πλάτ: 40.6500 - Γ.Μήκ: 17.9500 - Υψόμ: 10μ
Απόσταση από το Vouhead Weather: (Δ) 424χλμ
Ενημερώθηκε: 03/10/2022 15:20
Διάσπαρτα νέφη
Διάσπαρτα νέφη
 Άνεμος από ΒΒΔ
Άνεμος: ΒΒΔ 22 km/h
Θερμοκρασία: 22°C
Σημείο δρόσου: 16°C
Υγρασία: 69%
Βαρόμετρο: 1015 hPa
Σύννεφα: Διάσπαρτα νέφη
Ορατότητα: 10 km
Ανάλυση Νέφωσης: Διάσπαρτα νέφη 305 m
2022/10/03 12:20 LIBR 031220Z 33012KT 9999 FEW010 22/16 Q1015
 
LBBG - Αεροδρόμιο στo Μπουργκάς
Μπουργκάς(Σαράφοβο) - Μπουργκάς - Βουλγαρία
Γ.Πλάτ: 42.5000 - Γ.Μήκ: 27.4833 - Υψόμ: 28μ
Απόσταση από το Vouhead Weather: (ΑΒΑ) 432χλμ
Ενημερώθηκε: 03/10/2022 15:30
Κυρίως νεφελώδης
Κυρίως νεφελώδης
 Άνεμος από Δ
Άνεμος: Δ 15 km/h
Θερμοκρασία: 17°C
Σημείο δρόσου: 13°C
Υγρασία: 77%
Βαρόμετρο: 1013 hPa
Σύννεφα: Κυρίως νεφελώδης
Ορατότητα: 10 km
Ανάλυση Νέφωσης: Διάσπαρτα νέφη 1006 m
Κυρίως νεφελώδης 1494 m
2022/10/03 12:30 LBBG 031230Z 28008KT 9999 FEW033 BKN049 17/13 Q1013 NOSIG
LGPA - Αεροδρόμιο "Παντελαίειο"
Πάρος - Νότιο Αιγαίο - Ελλάδα
Γ.Πλάτ: 37.0000 - Γ.Μήκ: 25.0667 - Υψόμ: 36μ
Απόσταση από το Vouhead Weather: (ΝΝΑ) 436χλμ
Ενημερώθηκε: 03/10/2022 14:50
Αίθριος
Αίθριος
 Άνεμος από ΒΒΔ
Άνεμος: ΒΒΔ 15 km/h
Θερμοκρασία: 25°C
Σημείο δρόσου: 13°C
Υγρασία: 47%
Βαρόμετρο: 1011 hPa
Περίληψη: Αίθριος
Ορατότητα: πάνω από 10 km
2022/10/03 11:50 LGPA 031150Z 33008KT CAVOK 25/13 Q1011
 
LGNX - Αεροδρόμιο στη Νάξο
Νάξος - Νότιο Αιγαίο - Ελλάδα
Γ.Πλάτ: 37.0833 - Γ.Μήκ: 25.3667 - Υψόμ: 4μ
Απόσταση από το Vouhead Weather: (ΝΝΑ) 439χλμ
Ενημερώθηκε: 03/10/2022 14:50
Αίθριος
Αίθριος
 Άνεμος από Β
Άνεμος: Β 11 km/h
Θερμοκρασία: 25°C
Σημείο δρόσου: 14°C
Υγρασία: 51%
Βαρόμετρο: 1011 hPa
Περίληψη: Αίθριος
Ορατότητα: πάνω από 10 km
2022/10/03 11:50 LGNX 031150Z 01006KT CAVOK 25/14 Q1011
LTBJ - Αεροδρόμιο "Αντνάν Μεντερές"
Σμύρνη - Αιγαίο(Σμύρνη) - Τουρκία
Γ.Πλάτ: 38.2667 - Γ.Μήκ: 27.1333 - Υψόμ: 120μ
Απόσταση από το Vouhead Weather: (ΝΑ) 439χλμ
Ενημερώθηκε: 03/10/2022 15:20
Αίθριος
Αίθριος
 Άνεμος από Β
Άνεμος: Β 26 km/h
Θερμοκρασία: 28°C
Σημείο δρόσου: 5°C
Υγρασία: 23%
Βαρόμετρο: 1008 hPa
Περίληψη: Αίθριος
Ορατότητα: πάνω από 10 km
2022/10/03 12:20 LTBJ 031220Z 35014KT CAVOK 28/05 Q1008 NOSIG
 
LDDU - Αεροδρόμιο στο Ντουμπρόβνικ
Ντουμπρόβνικ - Ντουμπρόβνικ Νερέτβα - Κροατία
Γ.Πλάτ: 42.5667 - Γ.Μήκ: 18.2667 - Υψόμ: 165μ
Απόσταση από το Vouhead Weather: (ΔΒΔ) 450χλμ
Ενημερώθηκε: 03/10/2022 15:30
Αίθριος
Αίθριος
 Άνεμος από Μεταβλητός
Άνεμος: Μεταβλητός 15 km/h
Θερμοκρασία: 23°C
Σημείο δρόσου: 5°C
Υγρασία: 31%
Βαρόμετρο: 1016 hPa
Περίληψη: Αίθριος
Ορατότητα: πάνω από 10 km
2022/10/03 12:30 LDDU 031230Z VRB08KT CAVOK 23/05 Q1016 BECMG 02014KT TEMPO VRB15G30KT
LYUZ - Αεροδρόμιο στην Ούζιτσε & Πόνικβε
(Ανεπίσημο όνομα αεροδρομίου: Λέπα Γκλάβα)
Ούζιτσε - Σουμαντίγια και Δ. Σερβία - Σερβία
Γ.Πλάτ: 43.9000 - Γ.Μήκ: 19.7000 - Υψόμ: 904μ
Απόσταση από το Vouhead Weather: (ΒΔ) 458χλμ
Ενημερώθηκε: 04/11/2021 01:30
ΜΗ ΠΡΟΣΦΑΤΟ METAR
Εντονα πτωτική
Εντονα πτωτική
 Άνεμος από Μεταβλητός
Άνεμος: Μεταβλητός 9 km/h
Θερμοκρασία: 14°C
Σημείο δρόσου: 7°C
Υγρασία: 63%
Βαρόμετρο: 1010 hPa
Ορατότητα: 10 km
2021/11/03 23:30 LYUZ 032330Z AUTO VRB05KT 9999 ////// 14/07 Q1010
 
LGSM - Αεροδρόμιο "Αρίσταρχος ο Σάμιος"
Σάμος - Βόρειο Αιγαίο - Ελλάδα
Γ.Πλάτ: 37.6833 - Γ.Μήκ: 26.9167 - Υψόμ: 6μ
Απόσταση από το Vouhead Weather: (ΝΑ) 467χλμ
Ενημερώθηκε: 03/10/2022 14:50
Αίθριος
Αίθριος
 Άνεμος από Β
Άνεμος: Β 26 km/h
Θερμοκρασία: 26°C
Σημείο δρόσου: 15°C
Υγρασία: 51%
Βαρόμετρο: 1008 hPa
Περίληψη: Αίθριος
Ορατότητα: πάνω από 10 km
2022/10/03 11:50 LGSM 031150Z 35014KT 280V010 CAVOK 26/15 Q1008
LIBG - Αεροδρόμιο "Μαρτσέλο Αρλόττα"
Μουντιάζι(Ταράντο-Γκροτάλιε)-Απουλία(Ταράντο)-Ιταλία
Γ.Πλάτ: 40.5167 - Γ.Μήκ: 17.3833 - Υψόμ: 69μ
Απόσταση από το Vouhead Weather: (Δ) 472χλμ
Ενημερώθηκε: 03/10/2022 14:50
Διάσπαρτα νέφη
Διάσπαρτα νέφη
 Άνεμος από Β
Άνεμος: Β 26 km/h
Θερμοκρασία: 25°C
Σημείο δρόσου: 11°C
Υγρασία: 42%
Βαρόμετρο: 1015 hPa
Σύννεφα: Διάσπαρτα νέφη
Ορατότητα: 10 km
Ανάλυση Νέφωσης: Διάσπαρτα νέφη 914 m
2022/10/03 11:50 LIBG 031150Z 35014KT 9999 FEW030 25/11 Q1015
 
LGKC - Αεροδρόμιο στα Κύθηρα
Κύθηρα(Επτάνησα) - Αττική(Νήσοι) - Ελλάδα
Γ.Πλάτ: 36.2833 - Γ.Μήκ: 23.0167 - Υψόμ: 319μ
Απόσταση από το Vouhead Weather: (Ν) 476χλμ
Ενημερώθηκε: 03/10/2022 14:50
Διάσπαρτα νέφη
Διάσπαρτα νέφη
 Άνεμος από Μεταβλητός
Άνεμος: Μεταβλητός 9 km/h
Θερμοκρασία: 24°C
Σημείο δρόσου: 20°C
Υγρασία: 78%
Βαρόμετρο: 1014 hPa
Σύννεφα: Διάσπαρτα νέφη
Ορατότητα: 10 km
Ανάλυση Νέφωσης: Διάσπαρτα νέφη 762 m
2022/10/03 11:50 LGKC 031150Z VRB05KT 9999 FEW025 24/20 Q1014
LTBA - Αεροδρόμιο "Ατατούρκ"
Κωνσταντινούπολη - Μαρμαράς(Κων/πολη) - Τουρκία
Γ.Πλάτ: 40.9667 - Γ.Μήκ: 28.8167 - Υψόμ: 37μ
Απόσταση από το Vouhead Weather: (Α) 494χλμ
Ενημερώθηκε: 03/10/2022 15:20
Αίθριος
Αίθριος
 Άνεμος από ΝΔ
Άνεμος: ΝΔ 15 km/h
Θερμοκρασία: 22°C
Σημείο δρόσου: 11°C
Υγρασία: 50%
Βαρόμετρο: 1012 hPa
Περίληψη: Αίθριος
Ορατότητα: πάνω από 10 km
2022/10/03 12:20 LTBA 031220Z 22008KT 190V250 CAVOK 22/11 Q1012
   Μην χρησιμοποιήσετε τα στοιχεία για αποφάσεις που αφορούν ζωές και πάσης φύσεως ιδιοκτησίες  
ΠΗΓΑΙΝΕΤΕ ΣΤΗΝ ΙΟΝΙΑ ΠΗΓΑΙΝΕΤΕ ΣΤΗΝ ΚΑΛΑΜΑΤΑ ΠΗΓΑΙΝΕΤΕ ΣΤΗΝ ΚΗΦΙΣΙΑ ΠΗΓΑΙΝΕΤΕ ΣΤΗΝ ΣΥΡΟ ΠΗΓΑΙΝΕΤΕ ΣΤΗΝ ΔΕΞΑΜΕΝΗ (BOLTEK) ΠΗΓΑΙΝΕΤΕ ΣΤΗΝ ΔΕΞΑΜΕΝΗ (LR) ΠΗΓΑΙΝΕΤΕ ΣΤΗΝ ΛΑΡΙΣΑ Γενική Γραμματεία Πολιτικής Προστασίας Ενιαίος Ευρωπαϊκός Αριθμός Έκτακτης Ανάγκης Βίντεο για το Καστελλόριζο(Μεγίστη) από τα αρχεία της ΕΡΤ Ιστοσελίδα Δήμου Μεγίστης Δείτε το μεγαλύτερο